Time;durP1;ratioP1;P1;durP2;ratioP2;P2;SDS_P1;SDS_P2;PMS_P1;PMS_P2;Temp;Humidity;BMP_temperature;BMP_pressure;BME280_temperature;BME280_humidity;BME280_pressure;Samples;Min_cycle;Max_cycle;Signal;HPM_P1;HPM_P2
2021/07/16 00:01:25;;;;;;;10.65;4.05;;;;;;;25.11;38.63;93653.41;5090628;28;20098;-70
2021/07/16 00:03:50;;;;;;;6.65;3.25;;;;;;;25.16;38.29;93641.28;5090512;28;20063;-70
2021/07/16 00:06:16;;;;;;;4.80;2.95;;;;;;;25.19;38.15;93645.88;5090336;28;21064;-71
2021/07/16 00:08:42;;;;;;;10.18;3.97;;;;;;;25.24;38.33;93642.75;5087683;28;20415;-71
2021/07/16 00:11:08;;;;;;;13.00;3.55;;;;;;;25.28;38.18;93646.19;5072130;28;20027;-71
2021/07/16 00:13:33;;;;;;;8.82;5.25;;;;;;;25.37;40.20;93642.94;5072144;28;20027;-75
2021/07/16 00:15:59;;;;;;;7.68;4.03;;;;;;;25.18;41.01;93634.22;5090441;28;20073;-75
2021/07/16 00:18:24;;;;;;;11.48;4.75;;;;;;;25.10;41.52;93632.00;5089960;28;20028;-75
2021/07/16 00:20:50;;;;;;;18.15;4.97;;;;;;;25.01;42.18;93619.66;5089212;28;20027;-75
2021/07/16 00:23:15;;;;;;;11.57;5.28;;;;;;;24.88;42.32;93615.94;5089947;28;20035;-75
2021/07/16 00:25:41;;;;;;;16.25;5.20;;;;;;;24.77;42.59;93609.84;5090189;28;20414;-75
2021/07/16 00:28:09;;;;;;;13.70;5.03;;;;;;;24.67;43.53;93608.03;5089794;28;20081;-75
2021/07/16 00:30:36;;;;;;;11.23;4.82;;;;;;;24.58;43.60;93614.75;5090106;28;20036;-75
2021/07/16 00:33:04;;;;;;;8.50;4.88;;;;;;;24.53;43.54;93604.31;5090091;28;20063;-75
2021/07/16 00:35:30;;;;;;;9.45;4.47;;;;;;;24.46;41.89;93595.44;5089851;28;20054;-75
2021/07/16 00:37:55;;;;;;;7.38;4.00;;;;;;;24.43;41.94;93607.91;5090013;28;20032;-75
2021/07/16 00:40:21;;;;;;;13.95;4.65;;;;;;;24.40;42.38;93603.28;5089794;28;20479;-75
2021/07/16 00:42:46;;;;;;;7.85;4.25;;;;;;;24.38;42.93;93602.91;5070459;28;20028;-75
2021/07/16 00:45:14;;;;;;;11.55;3.85;;;;;;;24.32;42.26;93618.94;5087870;28;20075;-75
2021/07/16 00:47:40;;;;;;;11.13;4.15;;;;;;;24.26;42.06;93628.72;5089921;28;20095;-75
2021/07/16 00:50:10;;;;;;;8.65;3.92;;;;;;;24.16;42.08;93637.78;5089658;28;20028;-75
2021/07/16 00:52:36;;;;;;;8.05;3.90;;;;;;;24.06;42.78;93642.16;5088145;28;20044;-74
2021/07/16 00:55:04;;;;;;;14.30;5.47;;;;;;;23.89;44.25;93648.53;5071886;28;20449;-74
2021/07/16 00:57:30;;;;;;;14.15;5.22;;;;;;;23.83;44.86;93640.84;5089836;28;20028;-75
2021/07/16 00:59:55;;;;;;;9.60;5.07;;;;;;;23.79;45.72;93642.81;5071834;28;20787;-75
2021/07/16 01:02:21;;;;;;;13.65;5.80;;;;;;;23.75;45.61;93642.03;5088268;28;20032;-75
2021/07/16 01:04:47;;;;;;;10.30;6.18;;;;;;;23.75;45.89;93630.38;5088482;28;20380;-74
2021/07/16 01:07:12;;;;;;;12.68;6.00;;;;;;;23.71;46.05;93638.59;5089702;28;20028;-75
2021/07/16 01:09:37;;;;;;;8.73;4.68;;;;;;;23.69;46.61;93640.13;5089618;28;20028;-75
2021/07/16 01:12:05;;;;;;;10.07;6.10;;;;;;;23.63;46.89;93639.81;5089835;28;20027;-75
2021/07/16 01:14:31;;;;;;;12.38;5.85;;;;;;;23.60;47.02;93643.31;5089365;28;20031;-74
2021/07/16 01:17:01;;;;;;;15.85;6.07;;;;;;;23.51;47.07;93638.34;5089800;28;20116;-75
2021/07/16 01:19:45;;;;;;;8.70;5.97;;;;;;;23.40;47.65;93641.13;5089513;28;20487;-74
2021/07/16 01:22:11;;;;;;;13.18;5.40;;;;;;;23.33;47.49;93633.03;5089545;28;20032;-74
2021/07/16 01:24:38;;;;;;;12.50;6.47;;;;;;;23.29;47.97;93642.41;5089446;28;20072;-74
2021/07/16 01:27:04;;;;;;;11.32;6.50;;;;;;;23.22;47.96;93637.78;5069936;28;20036;-74
2021/07/16 01:29:29;;;;;;;11.85;5.50;;;;;;;23.13;48.60;93640.19;5089488;28;20024;-74
2021/07/16 01:31:55;;;;;;;11.27;6.18;;;;;;;23.05;49.32;93641.41;5091807;28;20046;-75
2021/07/16 01:34:20;;;;;;;10.43;6.15;;;;;;;23.02;49.89;93635.59;5093160;28;20094;-74
2021/07/16 01:36:46;;;;;;;16.83;6.38;;;;;;;22.98;49.59;93628.59;5093073;28;20028;-74
2021/07/16 01:39:11;;;;;;;17.63;6.35;;;;;;;22.98;49.60;93617.72;5073733;28;20074;-74
2021/07/16 01:41:37;;;;;;;11.65;6.53;;;;;;;23.00;50.00;93610.72;5093069;28;20028;-75
2021/07/16 01:44:04;;;;;;;17.17;6.93;;;;;;;23.01;49.97;93612.28;5090304;28;20039;-75
2021/07/16 01:46:29;;;;;;;14.68;6.43;;;;;;;23.01;50.21;93606.03;5092811;28;20043;-75
2021/07/16 01:48:55;;;;;;;15.65;6.28;;;;;;;23.05;49.70;93606.06;5074648;28;20459;-75
2021/07/16 01:51:21;;;;;;;14.07;6.35;;;;;;;23.03;49.60;93618.09;5074707;28;20050;-75
2021/07/16 01:53:46;;;;;;;12.38;6.38;;;;;;;23.06;49.71;93613.03;5091365;28;20027;-75
2021/07/16 01:56:12;;;;;;;9.50;5.90;;;;;;;23.06;49.75;93604.88;5092945;28;20050;-75
2021/07/16 01:58:37;;;;;;;12.05;5.75;;;;;;;23.06;50.10;93613.03;5092897;28;20475;-75
2021/07/16 02:01:03;;;;;;;11.90;5.78;;;;;;;23.02;49.78;93605.69;5073533;28;20514;-75
2021/07/16 02:03:28;;;;;;;11.32;6.00;;;;;;;23.02;49.92;93613.06;5074294;28;20031;-75
2021/07/16 02:05:54;;;;;;;9.48;5.13;;;;;;;23.01;49.85;93604.13;5092457;28;20043;-74
2021/07/16 02:08:22;;;;;;;11.18;5.55;;;;;;;22.96;50.28;93620.03;5089413;28;20063;-74
2021/07/16 02:10:51;;;;;;;10.68;6.00;;;;;;;22.86;49.71;93613.53;5092392;28;20032;-75
2021/07/16 02:13:16;;;;;;;17.60;6.20;;;;;;;22.82;49.91;93613.53;5090110;28;20050;-75
2021/07/16 02:15:45;;;;;;;11.10;6.63;;;;;;;22.79;49.95;93617.03;5092230;28;20032;-75
2021/07/16 02:18:11;;;;;;;12.32;6.25;;;;;;;22.76;49.81;93612.41;5090311;28;20123;-75
2021/07/16 02:20:39;;;;;;;14.80;5.80;;;;;;;22.77;49.54;93610.47;5090962;28;20020;-75
2021/07/16 02:23:17;;;;;;;9.85;6.35;;;;;;;22.77;49.68;93602.31;5092287;28;20039;-75
2021/07/16 02:25:43;;;;;;;14.45;6.65;;;;;;;22.72;50.19;93595.34;5074016;28;20024;-75
2021/07/16 02:28:28;;;;;;;16.10;6.68;;;;;;;22.68;50.53;93593.84;5092032;28;20475;-75
2021/07/16 02:30:53;;;;;;;11.85;6.57;;;;;;;22.68;50.90;93594.59;5092032;28;20104;-75
2021/07/16 02:33:20;;;;;;;12.57;5.47;;;;;;;22.65;51.11;93589.94;5091880;28;20081;-75
2021/07/16 02:35:46;;;;;;;10.57;5.97;;;;;;;22.59;51.75;93597.75;5073874;28;20050;-75
2021/07/16 02:38:12;;;;;;;19.77;6.65;;;;;;;22.56;51.92;93593.09;5091901;28;20020;-75
2021/07/16 02:40:38;;;;;;;8.05;5.50;;;;;;;22.52;51.62;93597.78;5091962;28;20036;-75
2021/07/16 02:43:05;;;;;;;12.27;6.35;;;;;;;22.55;51.91;93602.44;5090498;28;20107;-77
2021/07/16 02:45:31;;;;;;;11.57;5.97;;;;;;;22.50;51.37;93597.41;5091821;28;20030;-78
2021/07/16 02:47:57;;;;;;;10.43;5.55;;;;;;;22.47;51.76;93600.13;5092361;28;20399;-74
2021/07/16 02:50:24;;;;;;;14.38;6.57;;;;;;;22.44;51.69;93599.75;5092337;28;20024;-75
2021/07/16 02:52:49;;;;;;;24.33;7.60;;;;;;;22.43;51.92;93598.22;5092654;28;20498;-74
2021/07/16 02:55:16;;;;;;;17.17;7.93;;;;;;;22.42;52.19;93593.16;5092496;28;20020;-75
2021/07/16 02:57:41;;;;;;;18.80;6.88;;;;;;;22.38;51.87;93604.03;5072687;28;20412;-74
2021/07/16 03:00:10;;;;;;;14.18;6.60;;;;;;;22.38;51.71;93600.56;5074222;28;20035;-74
2021/07/16 03:02:40;;;;;;;13.52;6.82;;;;;;;22.29;51.91;93606.41;5089658;28;20395;-74
2021/07/16 03:05:07;;;;;;;11.07;6.30;;;;;;;22.23;52.27;93608.75;5091807;28;20031;-76
2021/07/16 03:07:33;;;;;;;18.35;7.68;;;;;;;22.20;52.12;93603.31;5091579;28;20027;-77
2021/07/16 03:09:58;;;;;;;20.60;7.22;;;;;;;22.22;52.09;93607.16;5089111;28;20093;-74
2021/07/16 03:12:24;;;;;;;18.52;7.00;;;;;;;22.22;52.02;93607.16;5091517;28;20456;-75
2021/07/16 03:14:49;;;;;;;12.98;6.85;;;;;;;22.19;52.28;93610.69;5072059;28;20468;-74
2021/07/16 03:17:14;;;;;;;14.68;6.53;;;;;;;22.20;52.49;93609.50;5091531;28;20025;-74
2021/07/16 03:19:40;;;;;;;13.30;7.35;;;;;;;22.20;52.61;93614.94;5091382;28;20463;-73
2021/07/16 03:22:05;;;;;;;11.00;6.53;;;;;;;22.18;52.46;93611.06;5091718;28;20024;-74
2021/07/16 03:24:31;;;;;;;13.05;7.10;;;;;;;22.14;52.45;93615.72;5091340;28;20036;-74
2021/07/16 03:26:56;;;;;;;14.02;6.65;;;;;;;22.12;52.51;93618.81;5073266;28;20028;-73
2021/07/16 03:29:21;;;;;;;15.20;6.72;;;;;;;22.07;52.42;93616.53;5091347;28;20568;-74
2021/07/16 03:31:47;;;;;;;17.08;6.95;;;;;;;21.99;52.77;93626.63;5091129;28;20027;-73
2021/07/16 03:34:12;;;;;;;16.75;6.68;;;;;;;21.91;53.42;93622.38;5091538;28;20483;-74
2021/07/16 03:36:38;;;;;;;10.15;6.38;;;;;;;21.84;53.95;93615.03;5089574;28;20114;-74
2021/07/16 03:39:04;;;;;;;13.18;6.20;;;;;;;21.80;53.76;93629.78;5091234;28;20449;-74
2021/07/16 03:41:30;;;;;;;13.52;7.38;;;;;;;21.75;54.71;93622.78;5091130;28;20024;-77
2021/07/16 03:43:55;;;;;;;14.75;7.78;;;;;;;21.77;54.17;93619.69;5091626;28;20036;-77
2021/07/16 03:46:26;;;;;;;12.77;6.90;;;;;;;21.78;54.70;93622.03;5073115;28;20418;-76
2021/07/16 03:48:51;;;;;;;15.80;7.13;;;;;;;21.77;54.92;93620.47;5072980;28;20046;-77
2021/07/16 03:51:17;;;;;;;16.73;8.07;;;;;;;21.83;54.80;93623.56;5069701;28;20431;-76
2021/07/16 03:53:42;;;;;;;17.25;8.75;;;;;;;21.89;54.83;93622.00;5070562;28;20428;-76
2021/07/16 03:56:07;;;;;;;19.60;7.63;;;;;;;21.92;54.99;93625.84;5070937;28;20116;-76
2021/07/16 03:58:33;;;;;;;15.68;9.05;;;;;;;21.93;54.59;93617.34;5070853;28;20032;-76
2021/07/16 04:00:58;;;;;;;14.13;8.07;;;;;;;22.00;54.44;93616.53;5070609;28;20111;-75
2021/07/16 04:03:24;;;;;;;18.27;7.00;;;;;;;22.09;54.07;93608.78;5070629;28;20024;-75
2021/07/16 04:05:49;;;;;;;17.88;8.15;;;;;;;22.13;54.05;93614.97;5068945;28;20085;-75
2021/07/16 04:08:18;;;;;;;16.55;8.60;;;;;;;22.18;54.06;93616.50;5069298;28;20021;-75
2021/07/16 04:10:44;;;;;;;17.65;7.55;;;;;;;22.26;54.22;93628.91;5067878;28;20411;-74
2021/07/16 04:13:12;;;;;;;12.32;8.13;;;;;;;22.28;54.13;93628.53;5070983;28;20107;-74
2021/07/16 04:15:40;;;;;;;28.35;8.15;;;;;;;22.26;53.91;93623.47;5070915;28;20024;-74
2021/07/16 04:18:06;;;;;;;12.52;7.07;;;;;;;22.29;53.68;93621.91;5070393;28;20033;-74
2021/07/16 04:20:33;;;;;;;13.52;8.25;;;;;;;22.30;54.00;93618.81;5070629;28;20078;-74
2021/07/16 04:22:59;;;;;;;16.73;7.85;;;;;;;22.32;53.25;93627.34;5070632;28;20077;-74
2021/07/16 04:25:25;;;;;;;14.23;6.88;;;;;;;22.36;52.04;93627.31;5070539;28;20028;-74
2021/07/16 04:27:52;;;;;;;10.93;5.43;;;;;;;22.37;48.98;93628.88;5070440;28;20498;-74
2021/07/16 04:30:20;;;;;;;21.98;5.40;;;;;;;22.40;50.02;93633.50;5070839;28;20108;-74
2021/07/16 04:32:46;;;;;;;8.32;4.75;;;;;;;22.48;49.52;93612.53;5070640;28;20039;-74
2021/07/16 04:35:14;;;;;;;11.10;4.90;;;;;;;22.55;50.53;93632.31;5070259;28;20064;-74
2021/07/16 04:37:40;;;;;;;13.27;5.55;;;;;;;22.63;49.49;93622.16;5070485;28;20024;-74
2021/07/16 04:40:09;;;;;;;11.55;6.32;;;;;;;22.69;50.78;93631.44;5070069;28;20399;-73
2021/07/16 04:42:34;;;;;;;11.43;6.00;;;;;;;22.73;49.64;93626.75;5069889;28;20028;-74
2021/07/16 04:45:00;;;;;;;27.73;7.13;;;;;;;22.80;50.06;93628.69;5069981;28;20483;-74
2021/07/16 04:47:26;;;;;;;21.63;7.28;;;;;;;22.84;50.31;93624.78;5069111;28;20448;-73
2021/07/16 04:49:51;;;;;;;20.48;7.53;;;;;;;22.90;51.22;93627.84;5069690;28;20488;-74
2021/07/16 04:52:17;;;;;;;15.18;7.18;;;;;;;22.92;52.51;93627.44;5081428;28;20121;-72
2021/07/16 04:54:42;;;;;;;16.13;7.05;;;;;;;22.97;51.41;93618.88;5087448;28;20027;-72
2021/07/16 04:57:11;;;;;;;23.05;7.90;;;;;;;22.99;51.11;93616.53;5090136;28;20430;-73
2021/07/16 04:59:37;;;;;;;13.80;7.03;;;;;;;23.04;51.20;93618.88;5070958;28;20515;-73
2021/07/16 05:02:04;;;;;;;15.52;6.97;;;;;;;23.10;51.15;93622.72;5090183;28;20050;-74
2021/07/16 05:04:29;;;;;;;16.08;7.57;;;;;;;23.12;51.38;93619.59;5070891;28;20027;-73
2021/07/16 05:06:55;;;;;;;14.30;8.23;;;;;;;23.14;51.95;93619.97;5077274;28;20020;-73
2021/07/16 05:09:20;;;;;;;14.40;7.43;;;;;;;23.14;51.18;93623.47;5093633;28;20493;-71
2021/07/16 05:11:46;;;;;;;20.70;6.80;;;;;;;23.21;51.14;93619.94;5093326;28;20038;-70
2021/07/16 05:14:11;;;;;;;16.13;6.57;;;;;;;23.31;51.93;93619.06;5093278;28;20085;-70
2021/07/16 05:16:37;;;;;;;21.77;7.03;;;;;;;23.40;51.03;93621.34;5091222;28;20119;-71
2021/07/16 05:19:02;;;;;;;11.13;6.20;;;;;;;23.54;50.44;93612.28;5093247;28;20024;-71
2021/07/16 05:21:28;;;;;;;20.60;8.05;;;;;;;23.68;49.90;93614.88;5075067;28;20110;-71
2021/07/16 05:23:53;;;;;;;10.95;6.45;;;;;;;23.79;49.19;93610.16;5091846;28;20023;-71
2021/07/16 05:26:19;;;;;;;13.25;6.63;;;;;;;23.98;49.22;93602.59;5093271;28;20024;-71
2021/07/16 05:28:47;;;;;;;15.85;6.43;;;;;;;24.08;48.25;93593.53;5093255;28;20024;-71
2021/07/16 05:31:14;;;;;;;13.88;5.60;;;;;;;24.16;46.96;93594.22;5093342;28;20166;-71
2021/07/16 05:33:40;;;;;;;11.52;6.22;;;;;;;24.26;46.74;93595.28;5091705;28;20020;-71
2021/07/16 05:36:06;;;;;;;10.68;5.30;;;;;;;24.38;45.75;93581.13;5093311;28;20039;-71
2021/07/16 05:38:33;;;;;;;18.85;5.28;;;;;;;24.46;45.27;93579.84;5090268;28;20059;-71
2021/07/16 05:40:59;;;;;;;17.40;5.45;;;;;;;24.56;44.27;93584.44;5075048;28;20114;-71
2021/07/16 05:43:24;;;;;;;19.35;5.63;;;;;;;24.67;44.32;93588.97;5093042;28;20067;-71
2021/07/16 05:45:50;;;;;;;19.13;5.20;;;;;;;24.77;44.66;93588.84;5090653;28;20032;-71
2021/07/16 05:48:16;;;;;;;17.80;5.13;;;;;;;24.90;44.74;93591.78;5092677;28;20092;-71
2021/07/16 05:50:43;;;;;;;16.42;5.43;;;;;;;25.00;45.46;93587.34;5092595;28;20496;-71
2021/07/16 05:53:09;;;;;;;15.35;4.75;;;;;;;25.10;44.58;93588.38;5092568;28;20051;-71
2021/07/16 05:55:36;;;;;;;16.38;5.22;;;;;;;25.11;44.02;93581.72;5074625;28;20105;-71
2021/07/16 05:58:01;;;;;;;12.30;4.45;;;;;;;25.21;44.23;93583.56;5073728;28;20475;-70
2021/07/16 06:00:28;;;;;;;14.15;5.88;;;;;;;25.36;44.40;93584.09;5092501;28;20031;-70
2021/07/16 06:02:54;;;;;;;14.07;4.95;;;;;;;25.49;44.37;93592.47;5092522;28;20547;-70
2021/07/16 06:05:19;;;;;;;16.30;4.53;;;;;;;25.56;44.47;93598.56;5092512;28;20528;-71
2021/07/16 06:07:45;;;;;;;14.95;4.95;;;;;;;25.56;43.39;93586.91;5092365;28;20024;-71
2021/07/16 06:10:11;;;;;;;12.07;4.03;;;;;;;25.60;43.37;93593.06;5090565;28;20032;-70
2021/07/16 06:12:37;;;;;;;14.32;6.05;;;;;;;25.68;43.59;93591.75;5073035;28;20028;-71
2021/07/16 06:15:04;;;;;;;16.10;4.60;;;;;;;25.70;43.12;93583.91;5092222;28;20040;-70
2021/07/16 06:17:31;;;;;;;8.55;3.88;;;;;;;25.67;43.17;93582.03;5092056;28;20038;-70
2021/07/16 06:19:57;;;;;;;15.27;3.50;;;;;;;25.75;43.06;93583.47;5090467;28;20035;-70
2021/07/16 06:22:22;;;;;;;15.75;4.40;;;;;;;25.78;42.98;93581.84;5092106;28;20032;-70
2021/07/16 06:24:47;;;;;;;32.55;4.78;;;;;;;25.70;43.59;93578.47;5091736;28;20419;-71
2021/07/16 06:27:13;;;;;;;10.23;4.32;;;;;;;25.85;41.67;93570.81;5092033;28;20020;-70
2021/07/16 06:29:38;;;;;;;15.35;3.78;;;;;;;26.00;41.77;93571.34;5092046;28;20097;-70
2021/07/16 06:32:04;;;;;;;11.82;3.90;;;;;;;26.12;41.41;93570.72;5073776;28;20046;-71
2021/07/16 06:34:30;;;;;;;17.30;4.40;;;;;;;26.21;41.32;93565.47;5092067;28;20027;-70
2021/07/16 06:36:55;;;;;;;19.35;3.78;;;;;;;26.30;41.39;93558.69;5091780;28;20479;-73
2021/07/16 06:39:21;;;;;;;12.23;3.65;;;;;;;26.38;41.95;93560.09;5092132;28;20093;-73
2021/07/16 06:41:47;;;;;;;14.70;4.28;;;;;;;26.47;40.62;93554.03;5074363;28;20027;-72
2021/07/16 06:44:13;;;;;;;10.45;3.47;;;;;;;26.56;40.95;93563.22;5073934;28;20027;-72
2021/07/16 06:46:39;;;;;;;12.07;3.63;;;;;;;26.66;40.82;93555.22;5091757;28;20035;-72
2021/07/16 06:49:04;;;;;;;16.77;3.60;;;;;;;26.81;40.99;93549.03;5092216;28;20340;-73
2021/07/16 06:51:31;;;;;;;10.48;3.70;;;;;;;26.87;40.80;93548.50;5091889;28;20051;-75
2021/07/16 06:54:05;;;;;;;8.15;3.30;;;;;;;26.97;40.14;93531.88;5073488;28;20179;-75
2021/07/16 06:56:32;;;;;;;11.13;3.83;;;;;;;27.08;40.60;93536.34;5072701;28;20020;-77
2021/07/16 06:58:58;;;;;;;13.02;4.03;;;;;;;27.17;39.45;93537.28;5091451;28;20020;-76
2021/07/16 07:01:23;;;;;;;15.02;3.65;;;;;;;27.27;40.05;93538.22;5071758;28;20020;-75
2021/07/16 07:03:49;;;;;;;22.08;4.88;;;;;;;27.33;39.92;93535.75;5071993;28;20027;-77
2021/07/16 07:06:15;;;;;;;15.77;4.57;;;;;;;27.42;39.76;93536.69;5071609;28;20559;-76
2021/07/16 07:08:41;;;;;;;12.43;3.80;;;;;;;27.54;38.77;93537.19;5091683;28;20028;-76
2021/07/16 07:11:07;;;;;;;15.27;3.45;;;;;;;27.65;39.90;93528.72;5073356;28;20024;-79
2021/07/16 07:13:33;;;;;;;12.32;3.80;;;;;;;27.77;39.39;93536.22;5091714;28;20102;-77
2021/07/16 07:15:59;;;;;;;21.67;5.28;;;;;;;27.88;38.42;93530.47;5092346;28;20123;-77
2021/07/16 07:18:25;;;;;;;11.57;3.60;;;;;;;27.99;38.06;93525.50;5072623;28;20055;-77
2021/07/16 07:20:51;;;;;;;14.77;3.88;;;;;;;28.00;37.77;93527.03;5088895;28;20029;-77
2021/07/16 07:23:17;;;;;;;8.70;3.65;;;;;;;28.12;38.01;93525.53;5091829;28;20051;-77
2021/07/16 07:25:42;;;;;;;9.05;4.35;;;;;;;28.23;38.62;93523.28;5091709;28;20034;-77
2021/07/16 07:28:08;;;;;;;13.75;4.65;;;;;;;28.26;38.03;93518.91;5071285;28;20452;-77
2021/07/16 07:30:34;;;;;;;7.55;3.45;;;;;;;28.35;38.44;93516.28;5072981;28;20028;-78
2021/07/16 07:32:59;;;;;;;22.55;3.78;;;;;;;28.39;37.23;93514.97;5087439;28;20086;-77
2021/07/16 07:35:25;;;;;;;5.65;3.17;;;;;;;28.51;38.01;93516.22;5091424;28;20169;-78
2021/07/16 07:37:50;;;;;;;23.90;4.47;;;;;;;28.58;36.66;93515.25;5073008;28;20070;-78
2021/07/16 07:40:17;;;;;;;13.50;4.20;;;;;;;28.63;37.07;93516.69;5091837;28;20026;-77
2021/07/16 07:42:46;;;;;;;13.70;3.25;;;;;;;28.66;36.53;93519.31;5091776;28;20027;-78
2021/07/16 07:45:13;;;;;;;13.55;4.20;;;;;;;28.72;37.25;93525.00;5073330;28;20058;-77
2021/07/16 07:47:39;;;;;;;8.73;4.30;;;;;;;28.80;36.07;93518.88;5073657;28;20054;-78
2021/07/16 07:50:12;;;;;;;15.32;4.18;;;;;;;28.81;36.28;93527.88;5091654;28;20028;-77
2021/07/16 07:52:37;;;;;;;10.05;3.90;;;;;;;28.82;36.64;93529.41;5091069;28;20127;-77
2021/07/16 07:55:03;;;;;;;13.40;4.60;;;;;;;28.84;36.87;93523.47;5073418;28;20161;-77
2021/07/16 07:57:29;;;;;;;11.57;3.80;;;;;;;28.90;35.70;93519.78;5069958;28;20480;-78
2021/07/16 07:59:54;;;;;;;12.40;3.38;;;;;;;28.97;35.48;93516.78;5089099;28;20126;-77
2021/07/16 08:02:19;;;;;;;8.27;4.43;;;;;;;28.98;35.64;93521.09;5091440;28;20521;-78
2021/07/16 08:04:45;;;;;;;12.27;4.40;;;;;;;29.01;35.60;93520.19;5086765;28;20037;-77
2021/07/16 08:07:10;;;;;;;15.07;4.20;;;;;;;29.08;36.48;93523.91;5073437;28;20031;-77
2021/07/16 08:09:36;;;;;;;17.65;4.50;;;;;;;29.20;35.44;93515.69;5073132;28;20039;-78
2021/07/16 08:12:03;;;;;;;12.07;4.38;;;;;;;29.24;35.20;93514.84;5091130;28;20062;-77
2021/07/16 08:14:28;;;;;;;8.65;4.63;;;;;;;29.26;35.27;93513.16;5071963;28;20071;-77
2021/07/16 08:16:54;;;;;;;10.55;4.82;;;;;;;29.34;36.09;93519.19;5091335;28;20110;-77
2021/07/16 08:19:20;;;;;;;7.70;4.22;;;;;;;29.42;36.33;93517.00;5069961;28;20052;-77
2021/07/16 08:21:51;;;;;;;10.57;4.75;;;;;;;29.47;36.01;93525.41;5088825;28;20040;-78
2021/07/16 08:24:17;;;;;;;19.52;5.35;;;;;;;29.52;35.11;93527.63;5063460;28;20029;-79
2021/07/16 08:26:42;;;;;;;18.88;5.15;;;;;;;29.55;34.43;93525.97;5091475;28;20387;-78
2021/07/16 08:29:08;;;;;;;9.98;4.88;;;;;;;29.55;34.55;93531.44;5091294;28;20036;-78
2021/07/16 08:31:35;;;;;;;8.40;3.80;;;;;;;29.55;35.09;93518.50;5091271;28;20035;-79
2021/07/16 08:34:01;;;;;;;12.10;5.00;;;;;;;29.59;34.99;93524.66;5072546;28;20034;-79
2021/07/16 08:36:26;;;;;;;14.60;5.10;;;;;;;29.67;34.61;93529.88;5071565;28;20031;-79
2021/07/16 08:38:52;;;;;;;8.70;5.03;;;;;;;29.74;34.79;93524.97;5072907;28;20487;-79
2021/07/16 08:41:17;;;;;;;11.68;4.93;;;;;;;29.79;34.87;93516.13;5092843;28;20012;-79
2021/07/16 08:43:45;;;;;;;13.20;4.68;;;;;;;29.82;34.66;93525.47;5076154;28;20113;-78
2021/07/16 08:46:11;;;;;;;8.30;5.05;;;;;;;29.88;34.97;93526.44;5077171;28;20028;-78
2021/07/16 08:48:38;;;;;;;14.60;5.20;;;;;;;29.86;34.55;93520.63;5083527;28;20031;-78
2021/07/16 08:51:04;;;;;;;17.77;5.32;;;;;;;29.89;35.61;93525.22;5095026;28;20028;-78
2021/07/16 08:53:30;;;;;;;8.40;4.60;;;;;;;29.99;34.51;93512.34;5094730;28;20107;-78
2021/07/16 08:55:56;;;;;;;17.10;4.80;;;;;;;30.04;33.74;93509.00;5091480;28;20549;-79
2021/07/16 08:58:21;;;;;;;12.10;5.35;;;;;;;30.15;33.66;93511.38;5076309;28;20020;-78
2021/07/16 09:00:47;;;;;;;16.35;5.28;;;;;;;30.18;33.68;93505.75;5076353;28;20032;-78
2021/07/16 09:03:13;;;;;;;12.98;5.28;;;;;;;30.28;33.89;93505.81;5075279;28;20503;-78
2021/07/16 09:05:42;;;;;;;12.10;5.18;;;;;;;30.36;33.77;93496.88;5076309;28;20023;-78
2021/07/16 09:08:18;;;;;;;17.15;5.78;;;;;;;30.44;33.78;93496.63;5084307;28;20449;-78
2021/07/16 09:10:45;;;;;;;10.00;4.72;;;;;;;30.52;33.15;93498.66;5078182;28;20028;-78
2021/07/16 09:13:11;;;;;;;9.88;5.05;;;;;;;30.59;34.71;93509.41;5094213;28;20032;-78
2021/07/16 09:15:36;;;;;;;10.35;5.50;;;;;;;30.62;32.95;93502.22;5076370;28;20028;-78
2021/07/16 09:18:20;;;;;;;14.77;5.32;;;;;;;30.59;33.40;93494.84;5095365;28;20555;-79
2021/07/16 09:20:45;;;;;;;10.50;5.90;;;;;;;30.55;33.97;93500.50;5093821;28;20023;-79
2021/07/16 09:23:17;;;;;;;14.05;5.20;;;;;;;30.57;33.50;93495.31;5093255;28;20036;-79
2021/07/16 09:25:43;;;;;;;;;;;;;;;30.59;32.93;93492.91;5093903;28;20028;-79
2021/07/16 09:28:29;;;;;;;20.02;5.50;;;;;;;30.59;34.25;93481.91;5093261;28;20375;-77
2021/07/16 09:31:34;;;;;;;13.40;6.15;;;;;;;30.73;35.05;93496.31;5074292;28;20038;-77
2021/07/16 09:34:06;;;;;;;19.15;5.60;;;;;;;30.80;33.89;93499.56;5092107;28;20042;-79
2021/07/16 09:36:38;;;;;;;11.63;5.78;;;;;;;30.87;33.35;93495.75;5074983;28;20035;-79
2021/07/16 09:39:09;;;;;;;10.35;6.75;;;;;;;30.91;33.33;93499.16;5073639;28;20078;-79
2021/07/16 09:42:05;;;;;;;10.68;5.70;;;;;;;30.97;32.77;93489.09;5074941;28;20032;-79
2021/07/16 09:44:40;;;;;;;13.88;6.03;;;;;;;31.01;32.95;93488.94;5073552;28;20105;-79
2021/07/16 09:47:21;;;;;;;12.85;5.40;;;;;;;31.12;31.87;93488.53;5092995;28;20055;-80
2021/07/16 09:50:02;;;;;;;11.15;6.43;;;;;;;31.18;33.51;93486.69;5091420;28;20020;-79
2021/07/16 09:52:29;;;;;;;12.38;5.60;;;;;;;31.20;32.70;93481.50;5073882;28;20044;-79
2021/07/16 09:55:18;;;;;;;11.65;5.35;;;;;;;31.24;31.77;93473.09;5074563;28;21226;-79
2021/07/16 09:57:48;;;;;;;20.90;6.95;;;;;;;31.23;32.39;93477.84;5073372;28;20028;-79
2021/07/16 10:00:25;;;;;;;10.38;5.78;;;;;;;31.23;32.58;93486.13;5073408;28;20078;-79
2021/07/16 10:02:55;;;;;;;12.50;6.55;;;;;;;31.29;32.23;93469.75;5092304;28;20099;-80
2021/07/16 10:05:21;;;;;;;8.65;5.57;;;;;;;31.38;32.58;93478.03;5074640;28;20024;-79
2021/07/16 10:07:47;;;;;;;11.57;6.35;;;;;;;31.46;32.67;93475.78;5074108;28;20111;-79
2021/07/16 10:10:20;;;;;;;16.30;6.05;;;;;;;31.51;32.03;93466.94;5074109;28;20122;-78
2021/07/16 10:12:48;;;;;;;13.93;5.72;;;;;;;31.58;31.36;93464.63;5072329;28;20032;-79
2021/07/16 10:15:16;;;;;;;16.02;5.70;;;;;;;31.67;31.12;93461.13;5092320;28;20462;-79
2021/07/16 10:17:42;;;;;;;15.40;6.72;;;;;;;31.78;31.98;93464.16;5074021;28;20501;-79
2021/07/16 10:20:12;;;;;;;14.10;6.38;;;;;;;31.85;31.19;93460.31;5092134;28;20024;-79
2021/07/16 10:22:39;;;;;;;8.60;5.57;;;;;;;31.92;31.61;93453.75;5090721;28;20137;-79
2021/07/16 10:25:06;;;;;;;11.98;6.43;;;;;;;31.99;32.02;93467.22;5072970;28;20029;-79
2021/07/16 10:27:33;;;;;;;10.80;7.28;;;;;;;32.03;32.60;93465.09;5092219;28;20027;-79
2021/07/16 10:30:11;;;;;;;13.40;5.70;;;;;;;32.00;31.21;93466.03;5073411;28;20032;-80
2021/07/16 10:32:48;;;;;;;9.90;6.93;;;;;;;32.04;32.45;93460.34;5074079;28;20036;-79
2021/07/16 10:35:19;;;;;;;11.70;5.90;;;;;;;32.07;31.45;93456.66;5074068;28;20032;-80
2021/07/16 10:37:45;;;;;;;10.98;6.28;;;;;;;31.96;31.65;93454.38;5074386;28;20032;-81
2021/07/16 10:40:40;;;;;;;14.82;6.05;;;;;;;31.95;31.47;93447.31;5073243;28;20471;-81
2021/07/16 10:43:08;;;;;;;11.68;5.63;;;;;;;31.97;31.43;93447.63;5073498;28;20035;-80
2021/07/16 10:45:37;;;;;;;10.32;6.20;;;;;;;32.07;30.88;93443.66;5088014;28;20098;-80
2021/07/16 10:48:16;;;;;;;13.35;5.10;;;;;;;32.08;31.11;93438.88;5091691;28;20172;-80
2021/07/16 10:50:43;;;;;;;12.90;5.68;;;;;;;32.10;31.42;93437.22;5091850;28;20067;-80
2021/07/16 10:53:14;;;;;;;15.60;5.78;;;;;;;32.22;30.84;93445.75;5091409;28;20536;-79
2021/07/16 10:55:40;;;;;;;14.35;6.00;;;;;;;32.34;30.62;93437.31;5091486;28;20031;-80
2021/07/16 10:58:18;;;;;;;10.45;5.90;;;;;;;32.49;31.05;93451.22;5089095;28;20551;-80
2021/07/16 11:00:43;;;;;;;14.00;5.32;;;;;;;32.58;30.77;93437.41;5071862;28;20028;-83
2021/07/16 11:03:13;;;;;;;6.88;4.45;;;;;;;32.66;30.97;93435.09;5090548;28;20107;-83
2021/07/16 11:05:39;;;;;;;17.75;5.90;;;;;;;32.74;30.19;93432.75;5087734;28;20028;-84
2021/07/16 11:08:05;;;;;;;8.50;5.70;;;;;;;32.75;30.52;93437.03;5091164;28;20020;-83
2021/07/16 11:10:50;;;;;;;8.20;4.90;;;;;;;32.78;30.45;93433.34;5089006;28;20047;-84
2021/07/16 11:13:37;;;;;;;15.07;4.97;;;;;;;32.85;30.44;93421.19;5072376;28;20056;-84
2021/07/16 11:16:27;;;;;;;8.68;6.00;;;;;;;32.91;30.63;93425.63;5087569;28;20051;-83
2021/07/16 11:19:04;;;;;;;13.27;5.47;;;;;;;33.01;29.65;93422.81;5067185;28;20036;-84
2021/07/16 11:21:42;;;;;;;11.48;5.57;;;;;;;33.06;29.56;93424.94;5091029;28;20027;-83
2021/07/16 11:24:17;;;;;;;11.10;5.53;;;;;;;33.09;29.60;93413.72;5071143;28;20101;-83
2021/07/16 11:26:58;;;;;;;10.50;5.50;;;;;;;33.21;28.88;93413.97;5091024;28;20378;-84
2021/07/16 11:29:35;;;;;;;12.65;5.90;;;;;;;33.28;28.97;93403.34;5073612;28;20028;-83